sensor_id;sensor_type;location;lat;lon;timestamp;temperature;humidity
36450;DHT22;22475;51.390;7.180;2022-11-12T00:01:36;11.10;93.10
36450;DHT22;22475;51.390;7.180;2022-11-12T00:04:03;11.20;93.10
36450;DHT22;22475;51.390;7.180;2022-11-12T00:06:29;11.10;93.10
36450;DHT22;22475;51.390;7.180;2022-11-12T00:08:56;11.10;93.00
36450;DHT22;22475;51.390;7.180;2022-11-12T00:11:23;11.10;93.00
36450;DHT22;22475;51.390;7.180;2022-11-12T00:13:49;11.10;93.00
36450;DHT22;22475;51.390;7.180;2022-11-12T00:16:16;11.10;93.00
36450;DHT22;22475;51.390;7.180;2022-11-12T00:18:44;11.00;92.90
36450;DHT22;22475;51.390;7.180;2022-11-12T00:21:12;11.00;92.80
36450;DHT22;22475;51.390;7.180;2022-11-12T00:23:39;11.00;92.80
36450;DHT22;22475;51.390;7.180;2022-11-12T00:26:06;10.90;92.80
36450;DHT22;22475;51.390;7.180;2022-11-12T00:28:32;10.90;93.00
36450;DHT22;22475;51.390;7.180;2022-11-12T00:31:06;10.90;93.00
36450;DHT22;22475;51.390;7.180;2022-11-12T00:33:32;10.90;93.10
36450;DHT22;22475;51.390;7.180;2022-11-12T00:36:00;10.90;93.00
36450;DHT22;22475;51.390;7.180;2022-11-12T00:38:29;10.90;93.00
36450;DHT22;22475;51.390;7.180;2022-11-12T00:40:58;10.90;92.90
36450;DHT22;22475;51.390;7.180;2022-11-12T00:43:25;10.80;92.90
36450;DHT22;22475;51.390;7.180;2022-11-12T00:45:51;10.70;92.90
36450;DHT22;22475;51.390;7.180;2022-11-12T00:48:18;10.70;92.90
36450;DHT22;22475;51.390;7.180;2022-11-12T00:50:45;10.70;92.90
36450;DHT22;22475;51.390;7.180;2022-11-12T00:53:13;10.60;92.90
36450;DHT22;22475;51.390;7.180;2022-11-12T00:55:40;10.60;92.90
36450;DHT22;22475;51.390;7.180;2022-11-12T00:58:06;10.60;92.90
36450;DHT22;22475;51.390;7.180;2022-11-12T01:00:33;10.50;92.90
36450;DHT22;22475;51.390;7.180;2022-11-12T01:03:02;10.60;92.90
36450;DHT22;22475;51.390;7.180;2022-11-12T01:05:33;10.60;92.90
36450;DHT22;22475;51.390;7.180;2022-11-12T01:08:00;10.50;92.90
36450;DHT22;22475;51.390;7.180;2022-11-12T01:10:28;10.50;92.90
36450;DHT22;22475;51.390;7.180;2022-11-12T01:12:55;10.50;93.00
36450;DHT22;22475;51.390;7.180;2022-11-12T01:15:22;10.60;93.10
36450;DHT22;22475;51.390;7.180;2022-11-12T01:17:48;10.60;93.20
36450;DHT22;22475;51.390;7.180;2022-11-12T01:20:15;10.60;93.20
36450;DHT22;22475;51.390;7.180;2022-11-12T01:22:42;10.60;93.10
36450;DHT22;22475;51.390;7.180;2022-11-12T01:25:09;10.50;93.10
36450;DHT22;22475;51.390;7.180;2022-11-12T01:27:37;10.50;93.00
36450;DHT22;22475;51.390;7.180;2022-11-12T01:30:05;10.40;93.10
36450;DHT22;22475;51.390;7.180;2022-11-12T01:32:34;10.40;93.10
36450;DHT22;22475;51.390;7.180;2022-11-12T01:35:01;10.40;93.20
36450;DHT22;22475;51.390;7.180;2022-11-12T01:37:27;10.40;93.10
36450;DHT22;22475;51.390;7.180;2022-11-12T01:39:54;10.40;93.10
36450;DHT22;22475;51.390;7.180;2022-11-12T01:42:22;10.40;93.10
36450;DHT22;22475;51.390;7.180;2022-11-12T01:44:51;10.30;93.00
36450;DHT22;22475;51.390;7.180;2022-11-12T01:47:21;10.30;92.90
36450;DHT22;22475;51.390;7.180;2022-11-12T01:49:50;10.20;92.90
36450;DHT22;22475;51.390;7.180;2022-11-12T01:52:21;10.10;92.90
36450;DHT22;22475;51.390;7.180;2022-11-12T01:54:52;10.10;92.90
36450;DHT22;22475;51.390;7.180;2022-11-12T01:57:23;10.10;93.10
36450;DHT22;22475;51.390;7.180;2022-11-12T01:59:57;10.10;93.10
36450;DHT22;22475;51.390;7.180;2022-11-12T02:02:27;10.10;93.20
36450;DHT22;22475;51.390;7.180;2022-11-12T02:04:54;10.10;93.00
36450;DHT22;22475;51.390;7.180;2022-11-12T02:07:22;10.00;93.00
36450;DHT22;22475;51.390;7.180;2022-11-12T02:09:51;10.00;93.00
36450;DHT22;22475;51.390;7.180;2022-11-12T02:12:18;9.90;93.00
36450;DHT22;22475;51.390;7.180;2022-11-12T02:15:00;9.80;93.00
36450;DHT22;22475;51.390;7.180;2022-11-12T02:17:28;9.80;93.10
36450;DHT22;22475;51.390;7.180;2022-11-12T02:19:57;9.80;93.10
36450;DHT22;22475;51.390;7.180;2022-11-12T02:22:25;9.70;93.20
36450;DHT22;22475;51.390;7.180;2022-11-12T02:24:52;9.70;93.20
36450;DHT22;22475;51.390;7.180;2022-11-12T02:27:19;9.60;93.20
36450;DHT22;22475;51.390;7.180;2022-11-12T02:29:46;9.60;93.20
36450;DHT22;22475;51.390;7.180;2022-11-12T02:32:13;9.60;93.20
36450;DHT22;22475;51.390;7.180;2022-11-12T02:34:40;9.60;93.20
36450;DHT22;22475;51.390;7.180;2022-11-12T02:37:07;9.50;93.20
36450;DHT22;22475;51.390;7.180;2022-11-12T02:39:35;9.50;93.20
36450;DHT22;22475;51.390;7.180;2022-11-12T02:42:02;9.50;93.20
36450;DHT22;22475;51.390;7.180;2022-11-12T02:44:30;9.40;93.20
36450;DHT22;22475;51.390;7.180;2022-11-12T02:46:57;9.40;93.20
36450;DHT22;22475;51.390;7.180;2022-11-12T02:49:23;9.40;93.30
36450;DHT22;22475;51.390;7.180;2022-11-12T02:51:50;9.40;93.40
36450;DHT22;22475;51.390;7.180;2022-11-12T02:54:17;9.40;93.30
36450;DHT22;22475;51.390;7.180;2022-11-12T02:56:45;9.40;93.30
36450;DHT22;22475;51.390;7.180;2022-11-12T02:59:12;9.40;93.30
36450;DHT22;22475;51.390;7.180;2022-11-12T03:01:38;9.40;93.30
36450;DHT22;22475;51.390;7.180;2022-11-12T03:04:05;9.30;93.30
36450;DHT22;22475;51.390;7.180;2022-11-12T03:06:32;9.30;93.20
36450;DHT22;22475;51.390;7.180;2022-11-12T03:08:58;9.30;93.30
36450;DHT22;22475;51.390;7.180;2022-11-12T03:11:25;9.30;93.20
36450;DHT22;22475;51.390;7.180;2022-11-12T03:13:54;9.20;93.30
36450;DHT22;22475;51.390;7.180;2022-11-12T03:16:20;9.20;93.30
36450;DHT22;22475;51.390;7.180;2022-11-12T03:18:47;9.20;93.40
36450;DHT22;22475;51.390;7.180;2022-11-12T03:21:14;9.20;93.40
36450;DHT22;22475;51.390;7.180;2022-11-12T03:23:40;9.20;93.50
36450;DHT22;22475;51.390;7.180;2022-11-12T03:26:07;9.20;93.60
36450;DHT22;22475;51.390;7.180;2022-11-12T03:28:34;9.10;93.50
36450;DHT22;22475;51.390;7.180;2022-11-12T03:31:02;9.10;93.50
36450;DHT22;22475;51.390;7.180;2022-11-12T03:33:29;9.10;93.60
36450;DHT22;22475;51.390;7.180;2022-11-12T03:35:55;9.10;93.50
36450;DHT22;22475;51.390;7.180;2022-11-12T03:38:22;9.00;93.50
36450;DHT22;22475;51.390;7.180;2022-11-12T03:40:49;9.00;93.50
36450;DHT22;22475;51.390;7.180;2022-11-12T03:43:16;9.00;93.60
36450;DHT22;22475;51.390;7.180;2022-11-12T03:45:42;8.90;93.60
36450;DHT22;22475;51.390;7.180;2022-11-12T03:48:11;9.00;93.60
36450;DHT22;22475;51.390;7.180;2022-11-12T03:50:37;8.90;93.60
36450;DHT22;22475;51.390;7.180;2022-11-12T03:53:04;8.90;93.70
36450;DHT22;22475;51.390;7.180;2022-11-12T03:55:31;8.90;93.70
36450;DHT22;22475;51.390;7.180;2022-11-12T03:57:58;8.90;93.70
36450;DHT22;22475;51.390;7.180;2022-11-12T04:00:26;8.90;93.80
36450;DHT22;22475;51.390;7.180;2022-11-12T04:02:54;8.90;93.80
36450;DHT22;22475;51.390;7.180;2022-11-12T04:05:23;8.90;93.80
36450;DHT22;22475;51.390;7.180;2022-11-12T04:08:12;8.90;93.70
36450;DHT22;22475;51.390;7.180;2022-11-12T04:10:56;8.90;93.70
36450;DHT22;22475;51.390;7.180;2022-11-12T04:13:23;8.80;93.70
36450;DHT22;22475;51.390;7.180;2022-11-12T04:15:52;8.80;93.60
36450;DHT22;22475;51.390;7.180;2022-11-12T04:18:33;8.80;93.70
36450;DHT22;22475;51.390;7.180;2022-11-12T04:21:18;8.80;93.80
36450;DHT22;22475;51.390;7.180;2022-11-12T04:24:02;8.80;93.70
36450;DHT22;22475;51.390;7.180;2022-11-12T04:26:29;8.70;93.60
36450;DHT22;22475;51.390;7.180;2022-11-12T04:28:55;8.70;93.60
36450;DHT22;22475;51.390;7.180;2022-11-12T04:31:39;8.70;93.60
36450;DHT22;22475;51.390;7.180;2022-11-12T04:34:06;8.70;93.60
36450;DHT22;22475;51.390;7.180;2022-11-12T04:36:52;8.70;93.70
36450;DHT22;22475;51.390;7.180;2022-11-12T04:39:18;8.70;93.70
36450;DHT22;22475;51.390;7.180;2022-11-12T04:41:45;8.70;93.70
36450;DHT22;22475;51.390;7.180;2022-11-12T04:44:29;8.70;93.60
36450;DHT22;22475;51.390;7.180;2022-11-12T04:47:13;8.70;93.60
36450;DHT22;22475;51.390;7.180;2022-11-12T04:49:40;8.70;93.70
36450;DHT22;22475;51.390;7.180;2022-11-12T04:52:08;8.70;93.70
36450;DHT22;22475;51.390;7.180;2022-11-12T04:54:35;8.60;93.70
36450;DHT22;22475;51.390;7.180;2022-11-12T04:57:02;8.60;93.70
36450;DHT22;22475;51.390;7.180;2022-11-12T04:59:28;8.60;93.70
36450;DHT22;22475;51.390;7.180;2022-11-12T05:01:55;8.60;93.80
36450;DHT22;22475;51.390;7.180;2022-11-12T05:04:22;8.50;93.80
36450;DHT22;22475;51.390;7.180;2022-11-12T05:06:52;8.50;93.80
36450;DHT22;22475;51.390;7.180;2022-11-12T05:09:21;8.50;94.20
36450;DHT22;22475;51.390;7.180;2022-11-12T05:11:48;8.50;93.90
36450;DHT22;22475;51.390;7.180;2022-11-12T05:14:15;8.50;93.90
36450;DHT22;22475;51.390;7.180;2022-11-12T05:16:42;8.40;93.90
36450;DHT22;22475;51.390;7.180;2022-11-12T05:19:09;8.40;93.90
36450;DHT22;22475;51.390;7.180;2022-11-12T05:21:36;8.40;93.90
36450;DHT22;22475;51.390;7.180;2022-11-12T05:24:22;8.40;93.90
36450;DHT22;22475;51.390;7.180;2022-11-12T05:26:49;8.40;93.80
36450;DHT22;22475;51.390;7.180;2022-11-12T05:29:16;8.40;93.90
36450;DHT22;22475;51.390;7.180;2022-11-12T05:31:43;8.40;94.00
36450;DHT22;22475;51.390;7.180;2022-11-12T05:34:10;8.40;94.00
36450;DHT22;22475;51.390;7.180;2022-11-12T05:36:36;8.40;94.00
36450;DHT22;22475;51.390;7.180;2022-11-12T05:39:03;8.40;93.90
36450;DHT22;22475;51.390;7.180;2022-11-12T05:41:31;8.40;93.90
36450;DHT22;22475;51.390;7.180;2022-11-12T05:43:58;8.40;93.90
36450;DHT22;22475;51.390;7.180;2022-11-12T05:46:28;8.40;94.00
36450;DHT22;22475;51.390;7.180;2022-11-12T05:48:55;8.30;94.00
36450;DHT22;22475;51.390;7.180;2022-11-12T05:51:21;8.30;94.10
36450;DHT22;22475;51.390;7.180;2022-11-12T05:53:48;8.30;94.10
36450;DHT22;22475;51.390;7.180;2022-11-12T05:56:15;8.30;94.10
36450;DHT22;22475;51.390;7.180;2022-11-12T05:58:43;8.30;94.10
36450;DHT22;22475;51.390;7.180;2022-11-12T06:01:10;8.30;94.10
36450;DHT22;22475;51.390;7.180;2022-11-12T06:03:36;8.20;94.00
36450;DHT22;22475;51.390;7.180;2022-11-12T06:06:03;8.20;94.00
36450;DHT22;22475;51.390;7.180;2022-11-12T06:08:30;8.20;94.00
36450;DHT22;22475;51.390;7.180;2022-11-12T06:10:57;8.20;94.00
36450;DHT22;22475;51.390;7.180;2022-11-12T06:13:24;8.20;94.00
36450;DHT22;22475;51.390;7.180;2022-11-12T06:15:53;8.10;93.90
36450;DHT22;22475;51.390;7.180;2022-11-12T06:18:20;8.10;93.90
36450;DHT22;22475;51.390;7.180;2022-11-12T06:20:47;8.10;93.90
36450;DHT22;22475;51.390;7.180;2022-11-12T06:23:34;8.10;93.90
36450;DHT22;22475;51.390;7.180;2022-11-12T06:26:02;8.10;93.90
36450;DHT22;22475;51.390;7.180;2022-11-12T06:28:29;8.00;93.90
36450;DHT22;22475;51.390;7.180;2022-11-12T06:30:57;8.00;93.90
36450;DHT22;22475;51.390;7.180;2022-11-12T06:33:24;8.00;94.00
36450;DHT22;22475;51.390;7.180;2022-11-12T06:35:57;8.00;94.00
36450;DHT22;22475;51.390;7.180;2022-11-12T06:38:28;8.00;94.10
36450;DHT22;22475;51.390;7.180;2022-11-12T06:40:54;8.00;94.10
36450;DHT22;22475;51.390;7.180;2022-11-12T06:43:21;8.00;94.00
36450;DHT22;22475;51.390;7.180;2022-11-12T06:45:48;8.00;94.00
36450;DHT22;22475;51.390;7.180;2022-11-12T06:48:16;8.00;94.00
36450;DHT22;22475;51.390;7.180;2022-11-12T06:50:43;8.00;94.10
36450;DHT22;22475;51.390;7.180;2022-11-12T06:53:09;8.00;94.10
36450;DHT22;22475;51.390;7.180;2022-11-12T06:55:36;8.00;94.10
36450;DHT22;22475;51.390;7.180;2022-11-12T06:58:03;7.90;94.10
36450;DHT22;22475;51.390;7.180;2022-11-12T07:00:30;8.00;94.10
36450;DHT22;22475;51.390;7.180;2022-11-12T07:02:56;8.00;94.10
36450;DHT22;22475;51.390;7.180;2022-11-12T07:05:24;7.90;94.10
36450;DHT22;22475;51.390;7.180;2022-11-12T07:07:51;7.90;94.00
36450;DHT22;22475;51.390;7.180;2022-11-12T07:10:19;7.90;94.00
36450;DHT22;22475;51.390;7.180;2022-11-12T07:12:46;7.90;94.00
36450;DHT22;22475;51.390;7.180;2022-11-12T07:15:13;7.90;94.10
36450;DHT22;22475;51.390;7.180;2022-11-12T07:17:43;7.90;94.10
36450;DHT22;22475;51.390;7.180;2022-11-12T07:20:10;7.90;94.20
36450;DHT22;22475;51.390;7.180;2022-11-12T07:22:38;7.90;94.20
36450;DHT22;22475;51.390;7.180;2022-11-12T07:25:06;7.80;94.00
36450;DHT22;22475;51.390;7.180;2022-11-12T07:27:32;7.90;94.10
36450;DHT22;22475;51.390;7.180;2022-11-12T07:29:59;7.90;94.00
36450;DHT22;22475;51.390;7.180;2022-11-12T07:32:26;7.80;94.00
36450;DHT22;22475;51.390;7.180;2022-11-12T07:34:53;7.90;94.10
36450;DHT22;22475;51.390;7.180;2022-11-12T07:37:19;7.90;94.20
36450;DHT22;22475;51.390;7.180;2022-11-12T07:39:47;7.90;94.20
36450;DHT22;22475;51.390;7.180;2022-11-12T07:42:15;7.90;94.20
36450;DHT22;22475;51.390;7.180;2022-11-12T07:44:41;7.90;94.20
36450;DHT22;22475;51.390;7.180;2022-11-12T07:47:08;7.90;94.20
36450;DHT22;22475;51.390;7.180;2022-11-12T07:49:35;7.90;94.30
36450;DHT22;22475;51.390;7.180;2022-11-12T07:52:01;7.90;94.30
36450;DHT22;22475;51.390;7.180;2022-11-12T07:54:28;7.90;94.30
36450;DHT22;22475;51.390;7.180;2022-11-12T07:56:56;7.90;94.30
36450;DHT22;22475;51.390;7.180;2022-11-12T07:59:23;7.90;94.40
36450;DHT22;22475;51.390;7.180;2022-11-12T08:01:50;7.90;94.40
36450;DHT22;22475;51.390;7.180;2022-11-12T08:04:16;8.00;94.50
36450;DHT22;22475;51.390;7.180;2022-11-12T08:06:43;8.00;94.50
36450;DHT22;22475;51.390;7.180;2022-11-12T08:09:10;8.00;94.40
36450;DHT22;22475;51.390;7.180;2022-11-12T08:11:37;8.00;94.50
36450;DHT22;22475;51.390;7.180;2022-11-12T08:14:05;8.00;94.50
36450;DHT22;22475;51.390;7.180;2022-11-12T08:16:32;8.10;94.60
36450;DHT22;22475;51.390;7.180;2022-11-12T08:18:59;8.20;94.60
36450;DHT22;22475;51.390;7.180;2022-11-12T08:21:26;8.30;94.80
36450;DHT22;22475;51.390;7.180;2022-11-12T08:23:53;8.40;95.00
36450;DHT22;22475;51.390;7.180;2022-11-12T08:26:23;8.50;95.10
36450;DHT22;22475;51.390;7.180;2022-11-12T08:28:51;8.60;95.10
36450;DHT22;22475;51.390;7.180;2022-11-12T08:31:20;8.70;95.10
36450;DHT22;22475;51.390;7.180;2022-11-12T08:33:47;8.80;95.00
36450;DHT22;22475;51.390;7.180;2022-11-12T08:36:15;8.80;95.00
36450;DHT22;22475;51.390;7.180;2022-11-12T08:38:43;8.80;95.00
36450;DHT22;22475;51.390;7.180;2022-11-12T08:41:11;8.90;95.00
36450;DHT22;22475;51.390;7.180;2022-11-12T08:43:39;9.00;95.10
36450;DHT22;22475;51.390;7.180;2022-11-12T08:46:06;9.10;95.00
36450;DHT22;22475;51.390;7.180;2022-11-12T08:48:34;9.10;94.90
36450;DHT22;22475;51.390;7.180;2022-11-12T08:51:02;9.20;95.00
36450;DHT22;22475;51.390;7.180;2022-11-12T08:53:29;9.30;95.00
36450;DHT22;22475;51.390;7.180;2022-11-12T08:55:57;9.40;95.10
36450;DHT22;22475;51.390;7.180;2022-11-12T08:58:24;9.50;95.00
36450;DHT22;22475;51.390;7.180;2022-11-12T09:00:52;9.50;95.00
36450;DHT22;22475;51.390;7.180;2022-11-12T09:03:20;9.60;95.20
36450;DHT22;22475;51.390;7.180;2022-11-12T09:05:49;9.80;95.30
36450;DHT22;22475;51.390;7.180;2022-11-12T09:08:18;9.90;95.30
36450;DHT22;22475;51.390;7.180;2022-11-12T09:10:46;10.00;95.20
36450;DHT22;22475;51.390;7.180;2022-11-12T09:13:13;10.10;95.20
36450;DHT22;22475;51.390;7.180;2022-11-12T09:15:41;10.20;95.20
36450;DHT22;22475;51.390;7.180;2022-11-12T09:18:11;10.40;95.20
36450;DHT22;22475;51.390;7.180;2022-11-12T09:20:38;10.50;95.20
36450;DHT22;22475;51.390;7.180;2022-11-12T09:23:08;10.50;95.00
36450;DHT22;22475;51.390;7.180;2022-11-12T09:25:35;10.50;94.80
36450;DHT22;22475;51.390;7.180;2022-11-12T09:28:07;10.60;94.80
36450;DHT22;22475;51.390;7.180;2022-11-12T09:30:35;10.60;94.80
36450;DHT22;22475;51.390;7.180;2022-11-12T09:33:01;10.70;94.80
36450;DHT22;22475;51.390;7.180;2022-11-12T09:35:29;10.70;94.80
36450;DHT22;22475;51.390;7.180;2022-11-12T09:37:56;10.80;94.90
36450;DHT22;22475;51.390;7.180;2022-11-12T09:40:31;10.90;94.90
36450;DHT22;22475;51.390;7.180;2022-11-12T09:42:59;10.90;94.90
36450;DHT22;22475;51.390;7.180;2022-11-12T09:45:29;11.00;94.90
36450;DHT22;22475;51.390;7.180;2022-11-12T09:48:01;11.10;94.90
36450;DHT22;22475;51.390;7.180;2022-11-12T09:50:30;11.10;94.80
36450;DHT22;22475;51.390;7.180;2022-11-12T09:53:01;11.20;94.80
36450;DHT22;22475;51.390;7.180;2022-11-12T09:55:33;11.20;94.70
36450;DHT22;22475;51.390;7.180;2022-11-12T09:58:04;11.30;94.80
36450;DHT22;22475;51.390;7.180;2022-11-12T10:00:31;11.40;94.90
36450;DHT22;22475;51.390;7.180;2022-11-12T10:03:00;11.40;94.90
36450;DHT22;22475;51.390;7.180;2022-11-12T10:05:31;11.60;94.90
36450;DHT22;22475;51.390;7.180;2022-11-12T10:08:01;11.60;95.00
36450;DHT22;22475;51.390;7.180;2022-11-12T10:10:39;11.70;94.90
36450;DHT22;22475;51.390;7.180;2022-11-12T10:13:27;11.80;94.80
36450;DHT22;22475;51.390;7.180;2022-11-12T10:16:06;11.90;94.80
36450;DHT22;22475;51.390;7.180;2022-11-12T10:19:07;12.00;94.80
36450;DHT22;22475;51.390;7.180;2022-11-12T10:21:44;12.20;94.70
36450;DHT22;22475;51.390;7.180;2022-11-12T10:24:13;12.20;94.70
36450;DHT22;22475;51.390;7.180;2022-11-12T10:26:41;12.30;94.80
36450;DHT22;22475;51.390;7.180;2022-11-12T10:29:15;12.40;94.80
36450;DHT22;22475;51.390;7.180;2022-11-12T10:31:44;12.40;94.80
36450;DHT22;22475;51.390;7.180;2022-11-12T10:34:15;12.50;94.80
36450;DHT22;22475;51.390;7.180;2022-11-12T10:36:44;12.60;94.80
36450;DHT22;22475;51.390;7.180;2022-11-12T10:39:30;12.70;94.80
36450;DHT22;22475;51.390;7.180;2022-11-12T10:42:04;12.70;94.70
36450;DHT22;22475;51.390;7.180;2022-11-12T10:44:32;12.80;94.70
36450;DHT22;22475;51.390;7.180;2022-11-12T10:50:14;12.90;94.60
36450;DHT22;22475;51.390;7.180;2022-11-12T10:52:53;13.00;94.60
36450;DHT22;22475;51.390;7.180;2022-11-12T10:55:22;13.00;94.60
36450;DHT22;22475;51.390;7.180;2022-11-12T10:58:16;13.00;94.50
36450;DHT22;22475;51.390;7.180;2022-11-12T11:00:57;13.10;94.50
36450;DHT22;22475;51.390;7.180;2022-11-12T11:03:26;13.10;94.50
36450;DHT22;22475;51.390;7.180;2022-11-12T11:05:55;13.20;94.40
36450;DHT22;22475;51.390;7.180;2022-11-12T11:08:39;13.20;94.40
36450;DHT22;22475;51.390;7.180;2022-11-12T11:11:16;13.20;94.30
36450;DHT22;22475;51.390;7.180;2022-11-12T11:13:46;13.20;94.30
36450;DHT22;22475;51.390;7.180;2022-11-12T11:16:14;13.30;94.30
36450;DHT22;22475;51.390;7.180;2022-11-12T11:18:45;13.30;94.30
36450;DHT22;22475;51.390;7.180;2022-11-12T11:21:29;13.30;94.20
36450;DHT22;22475;51.390;7.180;2022-11-12T11:24:04;13.30;94.10
36450;DHT22;22475;51.390;7.180;2022-11-12T11:26:41;13.40;94.10
36450;DHT22;22475;51.390;7.180;2022-11-12T11:29:29;13.40;94.00
36450;DHT22;22475;51.390;7.180;2022-11-12T11:32:00;13.40;93.90
36450;DHT22;22475;51.390;7.180;2022-11-12T11:34:37;13.40;93.90
36450;DHT22;22475;51.390;7.180;2022-11-12T11:37:18;13.50;93.90
36450;DHT22;22475;51.390;7.180;2022-11-12T11:39:51;13.50;93.90
36450;DHT22;22475;51.390;7.180;2022-11-12T11:42:42;13.50;93.90
36450;DHT22;22475;51.390;7.180;2022-11-12T11:45:15;13.50;93.80
36450;DHT22;22475;51.390;7.180;2022-11-12T11:47:49;13.50;93.80
36450;DHT22;22475;51.390;7.180;2022-11-12T11:50:23;13.50;93.70
36450;DHT22;22475;51.390;7.180;2022-11-12T11:52:59;13.60;93.70
36450;DHT22;22475;51.390;7.180;2022-11-12T11:55:33;13.60;93.60
36450;DHT22;22475;51.390;7.180;2022-11-12T11:58:08;13.60;93.50
36450;DHT22;22475;51.390;7.180;2022-11-12T12:00:46;13.60;93.50
36450;DHT22;22475;51.390;7.180;2022-11-12T12:03:19;13.70;93.50
36450;DHT22;22475;51.390;7.180;2022-11-12T12:05:57;13.70;93.50
36450;DHT22;22475;51.390;7.180;2022-11-12T12:08:35;13.70;93.50
36450;DHT22;22475;51.390;7.180;2022-11-12T12:11:12;13.70;93.50
36450;DHT22;22475;51.390;7.180;2022-11-12T12:13:54;13.70;93.50
36450;DHT22;22475;51.390;7.180;2022-11-12T12:16:36;13.70;93.50
36450;DHT22;22475;51.390;7.180;2022-11-12T12:19:09;13.70;93.50
36450;DHT22;22475;51.390;7.180;2022-11-12T12:21:45;13.70;93.50
36450;DHT22;22475;51.390;7.180;2022-11-12T12:24:17;13.70;93.60
36450;DHT22;22475;51.390;7.180;2022-11-12T12:26:48;13.70;93.60
36450;DHT22;22475;51.390;7.180;2022-11-12T12:29:22;13.80;93.60
36450;DHT22;22475;51.390;7.180;2022-11-12T12:31:54;13.80;93.60
36450;DHT22;22475;51.390;7.180;2022-11-12T12:34:28;13.80;93.60
36450;DHT22;22475;51.390;7.180;2022-11-12T12:37:02;13.80;93.60
36450;DHT22;22475;51.390;7.180;2022-11-12T12:39:36;13.80;93.60
36450;DHT22;22475;51.390;7.180;2022-11-12T12:42:08;13.80;93.50
36450;DHT22;22475;51.390;7.180;2022-11-12T12:44:51;13.80;93.50
36450;DHT22;22475;51.390;7.180;2022-11-12T12:47:34;13.80;93.40
36450;DHT22;22475;51.390;7.180;2022-11-12T12:50:06;13.80;93.40
36450;DHT22;22475;51.390;7.180;2022-11-12T12:53:00;13.90;93.40
36450;DHT22;22475;51.390;7.180;2022-11-12T12:55:36;13.80;93.40
36450;DHT22;22475;51.390;7.180;2022-11-12T12:58:03;13.90;93.40
36450;DHT22;22475;51.390;7.180;2022-11-12T13:00:34;13.90;93.40
36450;DHT22;22475;51.390;7.180;2022-11-12T13:03:03;13.90;93.40
36450;DHT22;22475;51.390;7.180;2022-11-12T13:05:32;13.90;93.50
36450;DHT22;22475;51.390;7.180;2022-11-12T13:08:03;13.90;93.50
36450;DHT22;22475;51.390;7.180;2022-11-12T13:10:51;13.90;93.50
36450;DHT22;22475;51.390;7.180;2022-11-12T13:13:32;13.90;93.50
36450;DHT22;22475;51.390;7.180;2022-11-12T13:16:00;13.90;93.50
36450;DHT22;22475;51.390;7.180;2022-11-12T13:18:56;13.90;93.50
36450;DHT22;22475;51.390;7.180;2022-11-12T13:21:23;13.90;93.50
36450;DHT22;22475;51.390;7.180;2022-11-12T13:23:51;14.00;93.50
36450;DHT22;22475;51.390;7.180;2022-11-12T13:26:42;14.00;93.40
36450;DHT22;22475;51.390;7.180;2022-11-12T13:29:21;14.00;93.40
36450;DHT22;22475;51.390;7.180;2022-11-12T13:31:49;14.00;93.40
36450;DHT22;22475;51.390;7.180;2022-11-12T13:34:29;14.00;93.40
36450;DHT22;22475;51.390;7.180;2022-11-12T13:37:00;14.00;93.40
36450;DHT22;22475;51.390;7.180;2022-11-12T13:39:31;14.00;93.40
36450;DHT22;22475;51.390;7.180;2022-11-12T13:41:58;14.00;93.40
36450;DHT22;22475;51.390;7.180;2022-11-12T13:44:43;14.00;93.40
36450;DHT22;22475;51.390;7.180;2022-11-12T13:47:12;14.00;93.40
36450;DHT22;22475;51.390;7.180;2022-11-12T13:49:43;14.00;93.40
36450;DHT22;22475;51.390;7.180;2022-11-12T13:52:12;14.00;93.40
36450;DHT22;22475;51.390;7.180;2022-11-12T13:54:40;14.10;93.30
36450;DHT22;22475;51.390;7.180;2022-11-12T13:57:15;14.10;93.30
36450;DHT22;22475;51.390;7.180;2022-11-12T13:59:42;14.10;93.30
36450;DHT22;22475;51.390;7.180;2022-11-12T14:02:19;14.10;93.30
36450;DHT22;22475;51.390;7.180;2022-11-12T14:04:49;14.10;93.30
36450;DHT22;22475;51.390;7.180;2022-11-12T14:07:31;14.10;93.30
36450;DHT22;22475;51.390;7.180;2022-11-12T14:10:08;14.10;93.30
36450;DHT22;22475;51.390;7.180;2022-11-12T14:13:01;14.10;93.20
36450;DHT22;22475;51.390;7.180;2022-11-12T14:15:53;14.10;93.30
36450;DHT22;22475;51.390;7.180;2022-11-12T14:18:26;14.10;93.30
36450;DHT22;22475;51.390;7.180;2022-11-12T14:20:57;14.10;93.20
36450;DHT22;22475;51.390;7.180;2022-11-12T14:23:30;14.10;93.20
36450;DHT22;22475;51.390;7.180;2022-11-12T14:25:56;14.20;93.20
36450;DHT22;22475;51.390;7.180;2022-11-12T14:28:25;14.20;93.20
36450;DHT22;22475;51.390;7.180;2022-11-12T14:30:53;14.10;93.20
36450;DHT22;22475;51.390;7.180;2022-11-12T14:33:21;14.20;93.20
36450;DHT22;22475;51.390;7.180;2022-11-12T14:35:48;14.20;93.20
36450;DHT22;22475;51.390;7.180;2022-11-12T14:38:20;14.10;93.20
36450;DHT22;22475;51.390;7.180;2022-11-12T14:40:51;14.20;93.20
36450;DHT22;22475;51.390;7.180;2022-11-12T14:43:25;14.20;93.20
36450;DHT22;22475;51.390;7.180;2022-11-12T14:45:55;14.20;93.20
36450;DHT22;22475;51.390;7.180;2022-11-12T14:48:23;14.20;93.20
36450;DHT22;22475;51.390;7.180;2022-11-12T14:50:55;14.20;93.20
36450;DHT22;22475;51.390;7.180;2022-11-12T14:53:29;14.20;93.10
36450;DHT22;22475;51.390;7.180;2022-11-12T14:55:58;14.10;93.00
36450;DHT22;22475;51.390;7.180;2022-11-12T14:58:26;14.20;93.10
36450;DHT22;22475;51.390;7.180;2022-11-12T15:00:54;14.20;93.10
36450;DHT22;22475;51.390;7.180;2022-11-12T15:03:23;14.20;93.10
36450;DHT22;22475;51.390;7.180;2022-11-12T15:06:07;14.10;93.00
36450;DHT22;22475;51.390;7.180;2022-11-12T15:08:37;14.20;93.00
36450;DHT22;22475;51.390;7.180;2022-11-12T15:11:15;14.10;93.00
36450;DHT22;22475;51.390;7.180;2022-11-12T15:13:44;14.10;93.00
36450;DHT22;22475;51.390;7.180;2022-11-12T15:16:18;14.10;93.00
36450;DHT22;22475;51.390;7.180;2022-11-12T15:19:03;14.10;93.00
36450;DHT22;22475;51.390;7.180;2022-11-12T15:21:31;14.10;93.00
36450;DHT22;22475;51.390;7.180;2022-11-12T15:24:05;14.00;93.00
36450;DHT22;22475;51.390;7.180;2022-11-12T15:26:33;14.10;93.00
36450;DHT22;22475;51.390;7.180;2022-11-12T15:29:18;14.00;92.90
36450;DHT22;22475;51.390;7.180;2022-11-12T15:31:48;14.00;92.80
36450;DHT22;22475;51.390;7.180;2022-11-12T15:34:23;14.00;92.80
36450;DHT22;22475;51.390;7.180;2022-11-12T15:36:51;14.00;92.80
36450;DHT22;22475;51.390;7.180;2022-11-12T15:39:19;14.00;92.80
36450;DHT22;22475;51.390;7.180;2022-11-12T15:41:46;13.90;92.70
36450;DHT22;22475;51.390;7.180;2022-11-12T15:44:13;13.90;92.70
36450;DHT22;22475;51.390;7.180;2022-11-12T15:46:46;13.90;92.70
36450;DHT22;22475;51.390;7.180;2022-11-12T15:49:13;13.90;92.70
36450;DHT22;22475;51.390;7.180;2022-11-12T15:51:40;13.90;92.70
36450;DHT22;22475;51.390;7.180;2022-11-12T15:54:06;13.80;92.70
36450;DHT22;22475;51.390;7.180;2022-11-12T15:56:34;13.80;92.80
36450;DHT22;22475;51.390;7.180;2022-11-12T15:59:02;13.80;93.20
36450;DHT22;22475;51.390;7.180;2022-11-12T16:01:29;13.80;92.90